Terminal Aerodrome Forecast
Issued by NWS

Home | Current Version | Previous Version | Text Only | Print | Product List | Glossary On
Versions: 1 2 3 4 5 6 7 8 9 10 11 12 13 14 15 16 17
000
FTAK31 PAJN 211100
TAFAGY
TAF
PAGY 211122Z 2112/2212 VRB05KT P6SM SCT050 BKN100
     FM211800 04006KT P6SM BKN050 BKN100
     FM212100 04008KT P6SM SCT025 BKN050
     FM220400 04004KT P6SM VCSH BKN050 OVC100
     FM221000 VRB03KT P6SM -RA BKN045 OVC080
      AMD LTD TO CLD VIS AND WIND=

USA.gov is the U.S. government's official web portal to all federal, state and local government web resources and services.